sensor_id;sensor_type;location;lat;lon;timestamp;P1;durP1;ratioP1;P2;durP2;ratioP2
52934;SDS011;38802;50.198;19.796;2023-03-03T00:01:58;64.40;;;34.60;;
52934;SDS011;38802;50.198;19.796;2023-03-03T00:04:27;68.80;;;34.80;;
52934;SDS011;38802;50.198;19.796;2023-03-03T00:06:55;56.20;;;31.40;;
52934;SDS011;38802;50.198;19.796;2023-03-03T00:09:23;66.50;;;34.00;;
52934;SDS011;38802;50.198;19.796;2023-03-03T00:11:55;60.20;;;33.40;;
52934;SDS011;38802;50.198;19.796;2023-03-03T00:14:27;63.50;;;33.10;;
52934;SDS011;38802;50.198;19.796;2023-03-03T00:16:59;63.70;;;33.50;;
52934;SDS011;38802;50.198;19.796;2023-03-03T00:19:38;64.30;;;32.20;;
52934;SDS011;38802;50.198;19.796;2023-03-03T00:22:13;64.40;;;31.40;;
52934;SDS011;38802;50.198;19.796;2023-03-03T00:24:49;62.00;;;32.30;;
52934;SDS011;38802;50.198;19.796;2023-03-03T00:27:30;62.00;;;32.80;;
52934;SDS011;38802;50.198;19.796;2023-03-03T00:30:05;66.80;;;31.70;;
52934;SDS011;38802;50.198;19.796;2023-03-03T00:32:46;63.70;;;32.60;;
52934;SDS011;38802;50.198;19.796;2023-03-03T00:38:00;52.60;;;30.70;;
52934;SDS011;38802;50.198;19.796;2023-03-03T00:40:41;55.70;;;43.30;;
52934;SDS011;38802;50.198;19.796;2023-03-03T00:43:20;57.30;;;31.70;;
52934;SDS011;38802;50.198;19.796;2023-03-03T00:45:56;51.60;;;28.80;;
52934;SDS011;38802;50.198;19.796;2023-03-03T00:53:57;47.90;;;28.90;;
52934;SDS011;38802;50.198;19.796;2023-03-03T00:56:26;49.40;;;27.00;;
52934;SDS011;38802;50.198;19.796;2023-03-03T00:58:54;46.00;;;25.30;;
52934;SDS011;38802;50.198;19.796;2023-03-03T01:01:22;47.50;;;26.00;;
52934;SDS011;38802;50.198;19.796;2023-03-03T01:03:53;46.10;;;26.50;;
52934;SDS011;38802;50.198;19.796;2023-03-03T01:06:21;47.60;;;24.90;;
52934;SDS011;38802;50.198;19.796;2023-03-03T01:08:49;43.70;;;25.50;;
52934;SDS011;38802;50.198;19.796;2023-03-03T01:11:19;47.60;;;26.50;;
52934;SDS011;38802;50.198;19.796;2023-03-03T01:13:50;43.60;;;24.10;;
52934;SDS011;38802;50.198;19.796;2023-03-03T01:16:20;38.90;;;22.70;;
52934;SDS011;38802;50.198;19.796;2023-03-03T01:18:49;41.00;;;22.10;;
52934;SDS011;38802;50.198;19.796;2023-03-03T01:21:17;44.00;;;24.50;;
52934;SDS011;38802;50.198;19.796;2023-03-03T01:23:46;58.80;;;33.10;;
52934;SDS011;38802;50.198;19.796;2023-03-03T01:26:14;42.90;;;27.20;;
52934;SDS011;38802;50.198;19.796;2023-03-03T01:28:42;38.80;;;22.20;;
52934;SDS011;38802;50.198;19.796;2023-03-03T01:31:10;42.10;;;22.30;;
52934;SDS011;38802;50.198;19.796;2023-03-03T01:33:39;38.40;;;21.80;;
52934;SDS011;38802;50.198;19.796;2023-03-03T01:36:08;38.50;;;21.80;;
52934;SDS011;38802;50.198;19.796;2023-03-03T01:38:37;37.90;;;21.00;;
52934;SDS011;38802;50.198;19.796;2023-03-03T01:41:05;32.20;;;21.00;;
52934;SDS011;38802;50.198;19.796;2023-03-03T01:43:33;42.30;;;22.10;;
52934;SDS011;38802;50.198;19.796;2023-03-03T01:48:30;34.80;;;22.00;;
52934;SDS011;38802;50.198;19.796;2023-03-03T01:51:01;57.60;;;30.30;;
52934;SDS011;38802;50.198;19.796;2023-03-03T01:53:38;77.10;;;40.60;;
52934;SDS011;38802;50.198;19.796;2023-03-03T01:56:09;92.70;;;43.00;;
52934;SDS011;38802;50.198;19.796;2023-03-03T01:58:42;103.50;;;47.80;;
52934;SDS011;38802;50.198;19.796;2023-03-03T02:01:14;54.70;;;30.40;;
52934;SDS011;38802;50.198;19.796;2023-03-03T02:03:47;50.90;;;28.40;;
52934;SDS011;38802;50.198;19.796;2023-03-03T02:06:16;52.10;;;26.10;;
52934;SDS011;38802;50.198;19.796;2023-03-03T02:08:59;47.10;;;27.20;;
52934;SDS011;38802;50.198;19.796;2023-03-03T02:11:35;51.30;;;28.80;;
52934;SDS011;38802;50.198;19.796;2023-03-03T02:14:06;48.90;;;26.90;;
52934;SDS011;38802;50.198;19.796;2023-03-03T02:16:35;50.30;;;30.40;;
52934;SDS011;38802;50.198;19.796;2023-03-03T02:19:04;48.00;;;29.10;;
52934;SDS011;38802;50.198;19.796;2023-03-03T02:21:36;52.30;;;30.20;;
52934;SDS011;38802;50.198;19.796;2023-03-03T02:24:12;50.20;;;27.60;;
52934;SDS011;38802;50.198;19.796;2023-03-03T02:26:50;46.40;;;27.00;;
52934;SDS011;38802;50.198;19.796;2023-03-03T02:29:18;46.10;;;27.60;;
52934;SDS011;38802;50.198;19.796;2023-03-03T02:31:46;46.00;;;26.10;;
52934;SDS011;38802;50.198;19.796;2023-03-03T02:34:15;48.40;;;26.40;;
52934;SDS011;38802;50.198;19.796;2023-03-03T02:36:43;62.00;;;31.60;;
52934;SDS011;38802;50.198;19.796;2023-03-03T02:39:24;58.10;;;31.20;;
52934;SDS011;38802;50.198;19.796;2023-03-03T02:44:40;40.80;;;23.20;;
52934;SDS011;38802;50.198;19.796;2023-03-03T02:47:09;39.20;;;22.90;;
52934;SDS011;38802;50.198;19.796;2023-03-03T02:49:37;39.50;;;24.10;;
52934;SDS011;38802;50.198;19.796;2023-03-03T02:52:07;38.70;;;23.50;;
52934;SDS011;38802;50.198;19.796;2023-03-03T02:54:39;42.30;;;24.50;;
52934;SDS011;38802;50.198;19.796;2023-03-03T02:57:07;41.60;;;25.20;;
52934;SDS011;38802;50.198;19.796;2023-03-03T02:59:35;38.50;;;25.50;;
52934;SDS011;38802;50.198;19.796;2023-03-03T03:02:08;41.80;;;24.30;;
52934;SDS011;38802;50.198;19.796;2023-03-03T03:04:36;49.30;;;26.00;;
52934;SDS011;38802;50.198;19.796;2023-03-03T03:07:04;55.30;;;31.40;;
52934;SDS011;38802;50.198;19.796;2023-03-03T03:09:34;49.80;;;27.50;;
52934;SDS011;38802;50.198;19.796;2023-03-03T03:12:02;43.80;;;25.60;;
52934;SDS011;38802;50.198;19.796;2023-03-03T03:14:32;53.30;;;25.50;;
52934;SDS011;38802;50.198;19.796;2023-03-03T03:17:00;50.00;;;27.70;;
52934;SDS011;38802;50.198;19.796;2023-03-03T03:19:28;46.20;;;26.30;;
52934;SDS011;38802;50.198;19.796;2023-03-03T03:21:59;47.40;;;25.60;;
52934;SDS011;38802;50.198;19.796;2023-03-03T03:24:27;49.40;;;26.70;;
52934;SDS011;38802;50.198;19.796;2023-03-03T03:27:00;45.40;;;28.10;;
52934;SDS011;38802;50.198;19.796;2023-03-03T03:29:28;41.40;;;26.90;;
52934;SDS011;38802;50.198;19.796;2023-03-03T03:31:56;48.70;;;25.80;;
52934;SDS011;38802;50.198;19.796;2023-03-03T03:34:24;44.60;;;25.10;;
52934;SDS011;38802;50.198;19.796;2023-03-03T03:36:53;39.90;;;22.30;;
52934;SDS011;38802;50.198;19.796;2023-03-03T03:39:22;40.20;;;23.60;;
52934;SDS011;38802;50.198;19.796;2023-03-03T03:41:51;44.20;;;26.30;;
52934;SDS011;38802;50.198;19.796;2023-03-03T03:44:19;46.30;;;23.40;;
52934;SDS011;38802;50.198;19.796;2023-03-03T03:46:47;44.50;;;25.80;;
52934;SDS011;38802;50.198;19.796;2023-03-03T03:49:15;36.90;;;24.30;;
52934;SDS011;38802;50.198;19.796;2023-03-03T03:51:47;41.50;;;24.90;;
52934;SDS011;38802;50.198;19.796;2023-03-03T03:54:16;93.50;;;44.00;;
52934;SDS011;38802;50.198;19.796;2023-03-03T03:56:45;50.40;;;26.80;;
52934;SDS011;38802;50.198;19.796;2023-03-03T03:59:13;60.80;;;31.10;;
52934;SDS011;38802;50.198;19.796;2023-03-03T04:01:41;51.80;;;27.40;;
52934;SDS011;38802;50.198;19.796;2023-03-03T04:04:09;48.60;;;26.20;;
52934;SDS011;38802;50.198;19.796;2023-03-03T04:06:38;49.70;;;26.70;;
52934;SDS011;38802;50.198;19.796;2023-03-03T04:09:06;47.80;;;27.20;;
52934;SDS011;38802;50.198;19.796;2023-03-03T04:11:35;48.40;;;25.20;;
52934;SDS011;38802;50.198;19.796;2023-03-03T04:14:04;48.30;;;26.10;;
52934;SDS011;38802;50.198;19.796;2023-03-03T04:16:34;44.10;;;24.60;;
52934;SDS011;38802;50.198;19.796;2023-03-03T04:19:02;43.00;;;26.30;;
52934;SDS011;38802;50.198;19.796;2023-03-03T04:21:32;44.60;;;25.00;;
52934;SDS011;38802;50.198;19.796;2023-03-03T04:24:01;40.00;;;24.00;;
52934;SDS011;38802;50.198;19.796;2023-03-03T04:26:29;43.40;;;24.10;;
52934;SDS011;38802;50.198;19.796;2023-03-03T04:28:58;48.80;;;26.80;;
52934;SDS011;38802;50.198;19.796;2023-03-03T04:31:26;50.50;;;29.30;;
52934;SDS011;38802;50.198;19.796;2023-03-03T04:33:55;58.60;;;32.70;;
52934;SDS011;38802;50.198;19.796;2023-03-03T04:36:23;50.10;;;30.60;;
52934;SDS011;38802;50.198;19.796;2023-03-03T04:38:52;52.90;;;28.70;;
52934;SDS011;38802;50.198;19.796;2023-03-03T04:41:20;92.50;;;47.60;;
52934;SDS011;38802;50.198;19.796;2023-03-03T04:43:48;59.80;;;35.30;;
52934;SDS011;38802;50.198;19.796;2023-03-03T04:46:16;61.90;;;33.70;;
52934;SDS011;38802;50.198;19.796;2023-03-03T04:48:44;66.70;;;34.80;;
52934;SDS011;38802;50.198;19.796;2023-03-03T04:51:13;66.90;;;33.30;;
52934;SDS011;38802;50.198;19.796;2023-03-03T04:53:44;85.20;;;39.80;;
52934;SDS011;38802;50.198;19.796;2023-03-03T04:56:13;81.20;;;40.70;;
52934;SDS011;38802;50.198;19.796;2023-03-03T04:58:42;81.40;;;39.40;;
52934;SDS011;38802;50.198;19.796;2023-03-03T05:01:12;84.00;;;42.90;;
52934;SDS011;38802;50.198;19.796;2023-03-03T05:03:44;70.60;;;38.60;;
52934;SDS011;38802;50.198;19.796;2023-03-03T05:06:12;86.90;;;44.00;;
52934;SDS011;38802;50.198;19.796;2023-03-03T05:08:41;85.60;;;41.20;;
52934;SDS011;38802;50.198;19.796;2023-03-03T05:11:10;72.80;;;38.60;;
52934;SDS011;38802;50.198;19.796;2023-03-03T05:13:38;64.90;;;35.90;;
52934;SDS011;38802;50.198;19.796;2023-03-03T05:16:07;57.20;;;32.90;;
52934;SDS011;38802;50.198;19.796;2023-03-03T05:18:35;65.60;;;33.20;;
52934;SDS011;38802;50.198;19.796;2023-03-03T05:21:04;64.80;;;33.20;;
52934;SDS011;38802;50.198;19.796;2023-03-03T05:23:32;63.90;;;32.70;;
52934;SDS011;38802;50.198;19.796;2023-03-03T05:26:00;66.30;;;31.70;;
52934;SDS011;38802;50.198;19.796;2023-03-03T05:28:28;64.30;;;33.90;;
52934;SDS011;38802;50.198;19.796;2023-03-03T05:30:57;70.40;;;34.90;;
52934;SDS011;38802;50.198;19.796;2023-03-03T05:33:25;73.20;;;35.00;;
52934;SDS011;38802;50.198;19.796;2023-03-03T05:35:53;72.00;;;34.50;;
52934;SDS011;38802;50.198;19.796;2023-03-03T05:38:23;61.30;;;34.10;;
52934;SDS011;38802;50.198;19.796;2023-03-03T05:40:52;72.80;;;35.10;;
52934;SDS011;38802;50.198;19.796;2023-03-03T05:43:21;77.00;;;35.80;;
52934;SDS011;38802;50.198;19.796;2023-03-03T05:45:53;62.40;;;33.70;;
52934;SDS011;38802;50.198;19.796;2023-03-03T05:48:23;68.20;;;35.30;;
52934;SDS011;38802;50.198;19.796;2023-03-03T05:50:51;67.50;;;34.50;;
52934;SDS011;38802;50.198;19.796;2023-03-03T05:53:19;68.00;;;35.20;;
52934;SDS011;38802;50.198;19.796;2023-03-03T05:55:47;73.80;;;34.90;;
52934;SDS011;38802;50.198;19.796;2023-03-03T05:58:16;68.90;;;35.80;;
52934;SDS011;38802;50.198;19.796;2023-03-03T06:00:44;65.00;;;34.30;;
52934;SDS011;38802;50.198;19.796;2023-03-03T06:03:12;64.40;;;35.00;;
52934;SDS011;38802;50.198;19.796;2023-03-03T06:05:41;69.00;;;35.70;;
52934;SDS011;38802;50.198;19.796;2023-03-03T06:08:09;74.60;;;35.90;;
52934;SDS011;38802;50.198;19.796;2023-03-03T06:10:37;66.00;;;35.70;;
52934;SDS011;38802;50.198;19.796;2023-03-03T06:13:05;65.70;;;34.90;;
52934;SDS011;38802;50.198;19.796;2023-03-03T06:15:33;68.80;;;35.90;;
52934;SDS011;38802;50.198;19.796;2023-03-03T06:18:01;69.90;;;35.20;;
52934;SDS011;38802;50.198;19.796;2023-03-03T06:20:30;66.80;;;36.60;;
52934;SDS011;38802;50.198;19.796;2023-03-03T06:22:58;65.40;;;34.70;;
52934;SDS011;38802;50.198;19.796;2023-03-03T06:25:26;67.30;;;37.40;;
52934;SDS011;38802;50.198;19.796;2023-03-03T06:27:55;62.60;;;32.20;;
52934;SDS011;38802;50.198;19.796;2023-03-03T06:30:23;64.30;;;33.00;;
52934;SDS011;38802;50.198;19.796;2023-03-03T06:32:51;70.90;;;32.70;;
52934;SDS011;38802;50.198;19.796;2023-03-03T06:35:19;64.30;;;34.70;;
52934;SDS011;38802;50.198;19.796;2023-03-03T06:37:47;69.10;;;34.10;;
52934;SDS011;38802;50.198;19.796;2023-03-03T06:40:17;71.30;;;36.40;;
52934;SDS011;38802;50.198;19.796;2023-03-03T06:42:45;69.30;;;36.40;;
52934;SDS011;38802;50.198;19.796;2023-03-03T06:45:14;67.30;;;37.40;;
52934;SDS011;38802;50.198;19.796;2023-03-03T06:47:42;65.90;;;34.40;;
52934;SDS011;38802;50.198;19.796;2023-03-03T06:50:10;70.50;;;34.60;;
52934;SDS011;38802;50.198;19.796;2023-03-03T06:52:39;64.60;;;35.30;;
52934;SDS011;38802;50.198;19.796;2023-03-03T06:55:15;62.00;;;36.80;;
52934;SDS011;38802;50.198;19.796;2023-03-03T06:57:49;74.40;;;37.80;;
52934;SDS011;38802;50.198;19.796;2023-03-03T07:00:19;64.30;;;36.70;;
52934;SDS011;38802;50.198;19.796;2023-03-03T07:02:58;68.30;;;36.00;;
52934;SDS011;38802;50.198;19.796;2023-03-03T07:05:32;69.90;;;35.60;;
52934;SDS011;38802;50.198;19.796;2023-03-03T07:08:01;70.40;;;37.70;;
52934;SDS011;38802;50.198;19.796;2023-03-03T07:10:33;69.90;;;37.00;;
52934;SDS011;38802;50.198;19.796;2023-03-03T07:13:07;70.20;;;39.20;;
52934;SDS011;38802;50.198;19.796;2023-03-03T07:15:45;75.30;;;38.00;;
52934;SDS011;38802;50.198;19.796;2023-03-03T07:18:20;67.20;;;36.70;;
52934;SDS011;38802;50.198;19.796;2023-03-03T07:23:52;67.80;;;37.10;;
52934;SDS011;38802;50.198;19.796;2023-03-03T07:26:22;65.80;;;36.20;;
52934;SDS011;38802;50.198;19.796;2023-03-03T07:28:57;70.30;;;36.70;;
52934;SDS011;38802;50.198;19.796;2023-03-03T07:31:29;76.30;;;37.90;;
52934;SDS011;38802;50.198;19.796;2023-03-03T07:34:04;68.50;;;36.00;;
52934;SDS011;38802;50.198;19.796;2023-03-03T07:36:56;67.00;;;37.40;;
52934;SDS011;38802;50.198;19.796;2023-03-03T07:39:38;63.60;;;34.50;;
52934;SDS011;38802;50.198;19.796;2023-03-03T07:44:55;63.70;;;36.00;;
52934;SDS011;38802;50.198;19.796;2023-03-03T07:50:12;69.00;;;35.20;;
52934;SDS011;38802;50.198;19.796;2023-03-03T07:52:51;69.80;;;36.90;;
52934;SDS011;38802;50.198;19.796;2023-03-03T07:58:14;68.50;;;37.00;;
52934;SDS011;38802;50.198;19.796;2023-03-03T08:03:38;76.00;;;36.40;;
52934;SDS011;38802;50.198;19.796;2023-03-03T08:06:23;66.50;;;35.90;;
52934;SDS011;38802;50.198;19.796;2023-03-03T08:14:54;78.90;;;40.10;;
52934;SDS011;38802;50.198;19.796;2023-03-03T08:17:33;85.50;;;41.90;;
52934;SDS011;38802;50.198;19.796;2023-03-03T08:23:14;106.20;;;47.60;;
52934;SDS011;38802;50.198;19.796;2023-03-03T08:25:43;95.80;;;46.00;;
52934;SDS011;38802;50.198;19.796;2023-03-03T08:28:11;97.70;;;48.90;;
52934;SDS011;38802;50.198;19.796;2023-03-03T08:30:40;101.30;;;48.80;;
52934;SDS011;38802;50.198;19.796;2023-03-03T08:33:10;110.10;;;52.30;;
52934;SDS011;38802;50.198;19.796;2023-03-03T08:35:39;99.10;;;49.20;;
52934;SDS011;38802;50.198;19.796;2023-03-03T08:38:09;107.90;;;51.20;;
52934;SDS011;38802;50.198;19.796;2023-03-03T08:40:38;102.80;;;51.50;;
52934;SDS011;38802;50.198;19.796;2023-03-03T08:43:06;99.00;;;50.10;;
52934;SDS011;38802;50.198;19.796;2023-03-03T08:45:35;99.70;;;47.70;;
52934;SDS011;38802;50.198;19.796;2023-03-03T08:48:03;106.80;;;52.90;;
52934;SDS011;38802;50.198;19.796;2023-03-03T08:50:32;99.70;;;48.10;;
52934;SDS011;38802;50.198;19.796;2023-03-03T08:53:00;97.50;;;50.60;;
52934;SDS011;38802;50.198;19.796;2023-03-03T08:55:29;114.30;;;56.70;;
52934;SDS011;38802;50.198;19.796;2023-03-03T08:57:57;105.40;;;49.20;;
52934;SDS011;38802;50.198;19.796;2023-03-03T09:00:25;103.00;;;50.90;;
52934;SDS011;38802;50.198;19.796;2023-03-03T09:02:54;109.20;;;53.70;;
52934;SDS011;38802;50.198;19.796;2023-03-03T09:05:22;103.70;;;52.40;;
52934;SDS011;38802;50.198;19.796;2023-03-03T09:07:51;100.60;;;53.80;;
52934;SDS011;38802;50.198;19.796;2023-03-03T09:10:22;111.50;;;54.30;;
52934;SDS011;38802;50.198;19.796;2023-03-03T09:12:58;103.30;;;53.70;;
52934;SDS011;38802;50.198;19.796;2023-03-03T09:15:31;107.90;;;55.90;;
52934;SDS011;38802;50.198;19.796;2023-03-03T09:18:13;112.70;;;54.40;;
52934;SDS011;38802;50.198;19.796;2023-03-03T09:20:52;119.40;;;56.10;;
52934;SDS011;38802;50.198;19.796;2023-03-03T09:26:22;113.10;;;57.50;;
52934;SDS011;38802;50.198;19.796;2023-03-03T09:29:16;105.90;;;55.70;;
52934;SDS011;38802;50.198;19.796;2023-03-03T09:31:51;128.60;;;63.10;;
52934;SDS011;38802;50.198;19.796;2023-03-03T09:39:51;151.70;;;66.80;;
52934;SDS011;38802;50.198;19.796;2023-03-03T09:42:27;116.40;;;58.30;;
52934;SDS011;38802;50.198;19.796;2023-03-03T09:56:37;118.80;;;53.20;;
52934;SDS011;38802;50.198;19.796;2023-03-03T10:10:18;116.60;;;52.90;;
52934;SDS011;38802;50.198;19.796;2023-03-03T10:12:57;104.00;;;48.60;;
52934;SDS011;38802;50.198;19.796;2023-03-03T10:21:09;102.90;;;48.00;;
52934;SDS011;38802;50.198;19.796;2023-03-03T10:23:52;95.10;;;45.20;;
52934;SDS011;38802;50.198;19.796;2023-03-03T10:38:51;91.10;;;42.50;;
52934;SDS011;38802;50.198;19.796;2023-03-03T10:41:28;80.90;;;38.90;;
52934;SDS011;38802;50.198;19.796;2023-03-03T10:47:00;74.30;;;36.30;;
52934;SDS011;38802;50.198;19.796;2023-03-03T10:52:17;90.20;;;39.80;;
52934;SDS011;38802;50.198;19.796;2023-03-03T10:57:49;93.50;;;40.20;;
52934;SDS011;38802;50.198;19.796;2023-03-03T11:08:28;88.80;;;38.70;;
52934;SDS011;38802;50.198;19.796;2023-03-03T11:27:05;94.30;;;39.70;;
52934;SDS011;38802;50.198;19.796;2023-03-03T11:32:26;72.30;;;31.00;;
52934;SDS011;38802;50.198;19.796;2023-03-03T11:40:28;92.30;;;36.40;;
52934;SDS011;38802;50.198;19.796;2023-03-03T11:46:10;87.60;;;33.80;;
52934;SDS011;38802;50.198;19.796;2023-03-03T11:57:19;80.20;;;32.90;;
52934;SDS011;38802;50.198;19.796;2023-03-03T11:59:58;59.70;;;28.50;;
52934;SDS011;38802;50.198;19.796;2023-03-03T12:05:33;67.20;;;29.30;;
52934;SDS011;38802;50.198;19.796;2023-03-03T12:19:41;65.80;;;29.00;;
52934;SDS011;38802;50.198;19.796;2023-03-03T12:22:30;54.00;;;27.50;;
52934;SDS011;38802;50.198;19.796;2023-03-03T12:33:32;56.80;;;25.80;;
52934;SDS011;38802;50.198;19.796;2023-03-03T12:36:28;53.50;;;25.30;;
52934;SDS011;38802;50.198;19.796;2023-03-03T12:39:59;55.70;;;24.60;;
52934;SDS011;38802;50.198;19.796;2023-03-03T13:03:20;57.00;;;28.90;;
52934;SDS011;38802;50.198;19.796;2023-03-03T13:06:22;68.20;;;29.80;;
52934;SDS011;38802;50.198;19.796;2023-03-03T13:09:02;68.50;;;32.20;;
52934;SDS011;38802;50.198;19.796;2023-03-03T13:14:36;68.50;;;29.80;;
52934;SDS011;38802;50.198;19.796;2023-03-03T13:17:14;71.30;;;32.10;;
52934;SDS011;38802;50.198;19.796;2023-03-03T13:20:11;69.40;;;29.60;;
52934;SDS011;38802;50.198;19.796;2023-03-03T13:22:54;69.40;;;30.80;;
52934;SDS011;38802;50.198;19.796;2023-03-03T13:27:59;72.20;;;29.60;;
52934;SDS011;38802;50.198;19.796;2023-03-03T13:33:07;69.20;;;31.60;;
52934;SDS011;38802;50.198;19.796;2023-03-03T13:38:21;73.50;;;33.50;;
52934;SDS011;38802;50.198;19.796;2023-03-03T13:41:01;72.30;;;30.40;;
52934;SDS011;38802;50.198;19.796;2023-03-03T13:43:42;71.20;;;31.20;;
52934;SDS011;38802;50.198;19.796;2023-03-03T13:46:17;73.50;;;33.00;;
52934;SDS011;38802;50.198;19.796;2023-03-03T13:48:56;66.10;;;31.60;;
52934;SDS011;38802;50.198;19.796;2023-03-03T13:56:47;63.40;;;28.00;;
52934;SDS011;38802;50.198;19.796;2023-03-03T14:02:17;53.80;;;26.40;;
52934;SDS011;38802;50.198;19.796;2023-03-03T14:08:25;64.20;;;29.80;;
52934;SDS011;38802;50.198;19.796;2023-03-03T14:19:47;71.30;;;32.30;;
52934;SDS011;38802;50.198;19.796;2023-03-03T14:25:17;66.00;;;29.50;;
52934;SDS011;38802;50.198;19.796;2023-03-03T14:35:39;60.40;;;25.80;;
52934;SDS011;38802;50.198;19.796;2023-03-03T14:38:11;79.50;;;33.90;;
52934;SDS011;38802;50.198;19.796;2023-03-03T14:40:41;50.90;;;25.80;;
52934;SDS011;38802;50.198;19.796;2023-03-03T14:45:54;55.30;;;23.50;;
52934;SDS011;38802;50.198;19.796;2023-03-03T14:48:22;49.90;;;24.50;;
52934;SDS011;38802;50.198;19.796;2023-03-03T14:50:54;49.00;;;22.90;;
52934;SDS011;38802;50.198;19.796;2023-03-03T14:53:31;65.60;;;30.20;;
52934;SDS011;38802;50.198;19.796;2023-03-03T14:59:20;54.00;;;25.40;;
52934;SDS011;38802;50.198;19.796;2023-03-03T15:02:12;52.10;;;25.40;;
52934;SDS011;38802;50.198;19.796;2023-03-03T15:05:09;51.80;;;26.20;;
52934;SDS011;38802;50.198;19.796;2023-03-03T15:07:43;57.30;;;25.50;;
52934;SDS011;38802;50.198;19.796;2023-03-03T15:10:11;58.70;;;27.40;;
52934;SDS011;38802;50.198;19.796;2023-03-03T15:12:54;62.10;;;27.40;;
52934;SDS011;38802;50.198;19.796;2023-03-03T15:15:21;69.90;;;30.40;;
52934;SDS011;38802;50.198;19.796;2023-03-03T15:21:15;58.20;;;27.50;;
52934;SDS011;38802;50.198;19.796;2023-03-03T15:32:02;60.80;;;27.50;;
52934;SDS011;38802;50.198;19.796;2023-03-03T15:34:43;54.40;;;28.80;;
52934;SDS011;38802;50.198;19.796;2023-03-03T15:54:35;120.20;;;44.10;;
52934;SDS011;38802;50.198;19.796;2023-03-03T15:57:16;106.30;;;38.50;;
52934;SDS011;38802;50.198;19.796;2023-03-03T16:02:51;82.30;;;31.50;;
52934;SDS011;38802;50.198;19.796;2023-03-03T16:35:28;60.10;;;29.80;;
52934;SDS011;38802;50.198;19.796;2023-03-03T16:38:04;65.70;;;30.10;;
52934;SDS011;38802;50.198;19.796;2023-03-03T16:43:32;51.30;;;26.00;;
52934;SDS011;38802;50.198;19.796;2023-03-03T16:51:48;56.60;;;27.60;;
52934;SDS011;38802;50.198;19.796;2023-03-03T16:54:32;56.60;;;27.60;;
52934;SDS011;38802;50.198;19.796;2023-03-03T16:57:18;53.70;;;27.50;;
52934;SDS011;38802;50.198;19.796;2023-03-03T17:00:05;59.50;;;27.40;;
52934;SDS011;38802;50.198;19.796;2023-03-03T17:11:55;56.70;;;26.80;;
52934;SDS011;38802;50.198;19.796;2023-03-03T17:17:04;64.10;;;28.30;;
52934;SDS011;38802;50.198;19.796;2023-03-03T17:22:40;56.20;;;26.60;;
52934;SDS011;38802;50.198;19.796;2023-03-03T17:25:24;62.00;;;27.00;;
52934;SDS011;38802;50.198;19.796;2023-03-03T17:28:15;71.10;;;29.80;;
52934;SDS011;38802;50.198;19.796;2023-03-03T17:36:46;54.80;;;27.70;;
52934;SDS011;38802;50.198;19.796;2023-03-03T17:45:35;52.50;;;26.00;;
52934;SDS011;38802;50.198;19.796;2023-03-03T17:59:33;60.80;;;29.70;;
52934;SDS011;38802;50.198;19.796;2023-03-03T18:16:16;62.80;;;30.90;;
52934;SDS011;38802;50.198;19.796;2023-03-03T18:22:24;58.00;;;29.70;;
52934;SDS011;38802;50.198;19.796;2023-03-03T18:25:00;58.00;;;28.00;;
52934;SDS011;38802;50.198;19.796;2023-03-03T18:27:46;59.60;;;28.90;;
52934;SDS011;38802;50.198;19.796;2023-03-03T18:33:12;50.60;;;24.70;;
52934;SDS011;38802;50.198;19.796;2023-03-03T18:35:42;41.60;;;22.80;;
52934;SDS011;38802;50.198;19.796;2023-03-03T18:46:03;45.30;;;24.20;;
52934;SDS011;38802;50.198;19.796;2023-03-03T19:04:38;49.10;;;26.40;;
52934;SDS011;38802;50.198;19.796;2023-03-03T19:07:19;51.10;;;27.90;;
52934;SDS011;38802;50.198;19.796;2023-03-03T19:09:54;50.20;;;26.00;;
52934;SDS011;38802;50.198;19.796;2023-03-03T19:18:04;42.60;;;22.30;;
52934;SDS011;38802;50.198;19.796;2023-03-03T19:23:46;44.40;;;23.00;;
52934;SDS011;38802;50.198;19.796;2023-03-03T19:51:51;61.10;;;31.60;;
52934;SDS011;38802;50.198;19.796;2023-03-03T20:11:29;82.30;;;37.10;;
52934;SDS011;38802;50.198;19.796;2023-03-03T20:22:44;83.00;;;36.30;;
52934;SDS011;38802;50.198;19.796;2023-03-03T20:25:26;91.50;;;38.70;;
52934;SDS011;38802;50.198;19.796;2023-03-03T20:28:02;96.60;;;38.50;;
52934;SDS011;38802;50.198;19.796;2023-03-03T20:30:52;79.90;;;35.10;;
52934;SDS011;38802;50.198;19.796;2023-03-03T20:42:02;91.40;;;39.80;;
52934;SDS011;38802;50.198;19.796;2023-03-03T20:52:57;101.00;;;38.70;;
52934;SDS011;38802;50.198;19.796;2023-03-03T20:55:34;91.90;;;37.90;;
52934;SDS011;38802;50.198;19.796;2023-03-03T21:01:15;91.40;;;36.40;;
52934;SDS011;38802;50.198;19.796;2023-03-03T21:03:54;89.20;;;37.20;;
52934;SDS011;38802;50.198;19.796;2023-03-03T21:06:43;83.80;;;33.90;;
52934;SDS011;38802;50.198;19.796;2023-03-03T21:09:26;84.30;;;33.10;;
52934;SDS011;38802;50.198;19.796;2023-03-03T21:12:03;79.10;;;34.30;;
52934;SDS011;38802;50.198;19.796;2023-03-03T21:14:36;85.60;;;34.70;;
52934;SDS011;38802;50.198;19.796;2023-03-03T21:17:23;87.80;;;36.10;;
52934;SDS011;38802;50.198;19.796;2023-03-03T21:19:53;80.40;;;33.80;;
52934;SDS011;38802;50.198;19.796;2023-03-03T21:22:20;86.70;;;35.90;;
52934;SDS011;38802;50.198;19.796;2023-03-03T21:24:53;82.30;;;36.00;;
52934;SDS011;38802;50.198;19.796;2023-03-03T21:32:35;73.80;;;35.80;;
52934;SDS011;38802;50.198;19.796;2023-03-03T21:35:08;70.60;;;31.70;;
52934;SDS011;38802;50.198;19.796;2023-03-03T21:37:42;65.00;;;30.60;;
52934;SDS011;38802;50.198;19.796;2023-03-03T21:40:20;65.40;;;29.40;;
52934;SDS011;38802;50.198;19.796;2023-03-03T21:42:54;56.70;;;27.90;;
52934;SDS011;38802;50.198;19.796;2023-03-03T21:45:23;55.80;;;25.70;;
52934;SDS011;38802;50.198;19.796;2023-03-03T21:47:50;62.80;;;27.20;;
52934;SDS011;38802;50.198;19.796;2023-03-03T21:50:18;63.70;;;29.30;;
52934;SDS011;38802;50.198;19.796;2023-03-03T21:52:47;63.50;;;31.40;;
52934;SDS011;38802;50.198;19.796;2023-03-03T21:55:14;64.30;;;29.70;;
52934;SDS011;38802;50.198;19.796;2023-03-03T21:57:41;61.90;;;28.90;;
52934;SDS011;38802;50.198;19.796;2023-03-03T22:00:08;53.60;;;26.70;;
52934;SDS011;38802;50.198;19.796;2023-03-03T22:02:35;57.90;;;25.40;;
52934;SDS011;38802;50.198;19.796;2023-03-03T22:05:02;58.80;;;27.50;;
52934;SDS011;38802;50.198;19.796;2023-03-03T22:07:29;64.00;;;28.70;;
52934;SDS011;38802;50.198;19.796;2023-03-03T22:09:56;60.50;;;28.70;;
52934;SDS011;38802;50.198;19.796;2023-03-03T22:12:23;68.70;;;30.00;;
52934;SDS011;38802;50.198;19.796;2023-03-03T22:14:49;65.70;;;28.10;;
52934;SDS011;38802;50.198;19.796;2023-03-03T22:17:18;68.40;;;31.20;;
52934;SDS011;38802;50.198;19.796;2023-03-03T22:19:45;61.60;;;29.80;;
52934;SDS011;38802;50.198;19.796;2023-03-03T22:22:20;67.20;;;30.20;;
52934;SDS011;38802;50.198;19.796;2023-03-03T22:24:47;61.60;;;28.40;;
52934;SDS011;38802;50.198;19.796;2023-03-03T22:27:15;66.10;;;31.00;;
52934;SDS011;38802;50.198;19.796;2023-03-03T22:29:41;74.30;;;31.00;;